Time;durP1;ratioP1;P1;durP2;ratioP2;P2;SDS_P1;SDS_P2;PMS_P1;PMS_P2;Temp;Humidity;BMP_temperature;BMP_pressure;BME280_temperature;BME280_humidity;BME280_pressure;Samples;Min_cycle;Max_cycle;Signal;HPM_P1;HPM_P2
2021/08/23 00:00:30;;;;;;;;;12.00;6.00;;;;;;;;5031915;28;45877;-86
2021/08/23 00:02:55;;;;;;;;;4.67;3.00;;;;;;;;5029073;28;45664;-87
2021/08/23 00:05:21;;;;;;;;;5.00;4.33;;;;;;;;5031690;28;47732;-87
2021/08/23 00:07:46;;;;;;;;;6.00;6.00;;;;;;;;5031133;28;45731;-86
2021/08/23 00:10:11;;;;;;;;;3.33;3.33;;;;;;;;5034181;28;45361;-86
2021/08/23 00:12:37;;;;;;;;;7.75;4.00;;;;;;;;5014007;28;45546;-87
2021/08/23 00:15:02;;;;;;;;;5.25;4.75;;;;;;;;5018905;28;47073;-86
2021/08/23 00:17:28;;;;;;;;;4.50;4.50;;;;;;;;5015055;28;45571;-86
2021/08/23 00:19:53;;;;;;;;;6.33;5.00;;;;;;;;5030677;28;45482;-87
2021/08/23 00:24:50;;;;;;;;;9.25;5.50;;;;;;;;5026975;28;45881;-86
2021/08/23 00:27:16;;;;;;;;;7.25;4.75;;;;;;;;5026845;28;45435;-87
2021/08/23 00:29:41;;;;;;;;;5.75;5.75;;;;;;;;5031829;28;45054;-86
2021/08/23 00:32:06;;;;;;;;;6.75;6.00;;;;;;;;5027709;28;47453;-86
2021/08/23 00:34:32;;;;;;;;;5.67;5.00;;;;;;;;5030792;28;45496;-87
2021/08/23 00:36:57;;;;;;;;;6.00;6.00;;;;;;;;5014280;28;45666;-86
2021/08/23 00:39:22;;;;;;;;;6.33;5.00;;;;;;;;5029712;28;45503;-86
2021/08/23 00:41:47;;;;;;;;;5.00;5.00;;;;;;;;5032236;28;45527;-86
2021/08/23 00:44:12;;;;;;;;;5.33;5.00;;;;;;;;5029661;28;45646;-87
2021/08/23 00:46:38;;;;;;;;;6.00;5.00;;;;;;;;5031594;28;45657;-87
2021/08/23 00:49:04;;;;;;;;;6.00;4.33;;;;;;;;5030083;28;45603;-87
2021/08/23 00:51:29;;;;;;;;;8.00;5.75;;;;;;;;5026169;28;45774;-86
2021/08/23 00:53:54;;;;;;;;;4.75;4.00;;;;;;;;5034127;28;47131;-87
2021/08/23 00:56:20;;;;;;;;;5.00;5.00;;;;;;;;5014367;28;45538;-86
2021/08/23 00:58:46;;;;;;;;;6.25;4.50;;;;;;;;5012398;28;45579;-87
2021/08/23 01:01:26;;;;;;;;;10.00;5.50;;;;;;;;5027622;28;45146;-87
2021/08/23 01:03:58;;;;;;;;;8.75;4.00;;;;;;;;5028926;28;46609;-86
2021/08/23 01:06:24;;;;;;;;;4.50;4.50;;;;;;;;5015287;28;45432;-86
2021/08/23 01:08:49;;;;;;;;;7.25;5.75;;;;;;;;5033182;28;46257;-87
2021/08/23 01:11:15;;;;;;;;;5.50;5.50;;;;;;;;5029603;28;45659;-86
2021/08/23 01:13:48;;;;;;;;;6.00;5.00;;;;;;;;5030712;28;46696;-86
2021/08/23 01:16:13;;;;;;;;;4.00;4.00;;;;;;;;5032277;28;45672;-87
2021/08/23 01:18:39;;;;;;;;;6.00;4.00;;;;;;;;5015144;28;45571;-87
2021/08/23 01:21:07;;;;;;;;;6.75;4.75;;;;;;;;5030220;28;45431;-86
2021/08/23 01:23:33;;;;;;;;;5.00;5.00;;;;;;;;5034089;28;46321;-86
2021/08/23 01:25:58;;;;;;;;;5.00;4.50;;;;;;;;5032361;28;46105;-86
2021/08/23 01:28:34;;;;;;;;;4.33;3.00;;;;;;;;5032663;28;45787;-87
2021/08/23 01:31:14;;;;;;;;;7.50;4.75;;;;;;;;5027199;28;45804;-86
2021/08/23 01:33:44;;;;;;;;;5.00;3.00;;;;;;;;5025256;28;45836;-86
2021/08/23 01:36:10;;;;;;;;;5.00;4.00;;;;;;;;5022384;28;46002;-86
2021/08/23 01:38:35;;;;;;;;;4.25;4.00;;;;;;;;5029005;28;45626;-86
2021/08/23 01:41:05;;;;;;;;;6.00;6.00;;;;;;;;5028496;28;45612;-86
2021/08/23 01:43:31;;;;;;;;;4.75;4.50;;;;;;;;5027173;28;46515;-86
2021/08/23 01:45:56;;;;;;;;;6.00;4.00;;;;;;;;5025807;28;45821;-86
2021/08/23 01:48:21;;;;;;;;;8.00;4.25;;;;;;;;5029200;28;45487;-86
2021/08/23 01:50:47;;;;;;;;;5.00;3.00;;;;;;;;5011785;28;45568;-87
2021/08/23 01:53:12;;;;;;;;;7.00;4.00;;;;;;;;5028452;28;46289;-86
2021/08/23 01:55:37;;;;;;;;;7.00;3.00;;;;;;;;5025939;28;46402;-87
2021/08/23 01:58:03;;;;;;;;;5.33;3.67;;;;;;;;5030711;28;45699;-86
2021/08/23 02:00:29;;;;;;;;;5.00;4.25;;;;;;;;5026949;28;45657;-87
2021/08/23 02:02:54;;;;;;;;;5.00;5.00;;;;;;;;5012437;28;46586;-86
2021/08/23 02:05:19;;;;;;;;;5.00;4.00;;;;;;;;5009861;28;46115;-86
2021/08/23 02:07:44;;;;;;;;;5.00;5.00;;;;;;;;5027548;28;46691;-86
2021/08/23 02:10:10;;;;;;;;;6.00;4.00;;;;;;;;5030106;28;46239;-86
2021/08/23 02:12:35;;;;;;;;;7.25;4.00;;;;;;;;5030167;28;45556;-87
2021/08/23 02:15:00;;;;;;;;;7.00;4.00;;;;;;;;5016137;28;45628;-86
2021/08/23 02:17:25;;;;;;;;;6.25;5.00;;;;;;;;5028770;28;45625;-86
2021/08/23 02:19:50;;;;;;;;;7.67;5.33;;;;;;;;5013765;28;50107;-86
2021/08/23 02:22:16;;;;;;;;;6.67;4.00;;;;;;;;5033886;28;45636;-86
2021/08/23 02:24:41;;;;;;;;;4.67;4.00;;;;;;;;5031549;28;45415;-87
2021/08/23 02:27:06;;;;;;;;;6.00;4.00;;;;;;;;5025575;28;45494;-86
2021/08/23 02:29:31;;;;;;;;;10.00;4.00;;;;;;;;5032052;28;45531;-86
2021/08/23 02:31:57;;;;;;;;;4.25;4.25;;;;;;;;5031555;28;45506;-87
2021/08/23 02:34:22;;;;;;;;;8.33;5.00;;;;;;;;5015792;28;45588;-86
2021/08/23 02:36:47;;;;;;;;;5.00;3.67;;;;;;;;5027188;28;46552;-86
2021/08/23 02:39:12;;;;;;;;;6.00;4.67;;;;;;;;5032036;28;45411;-87
2021/08/23 02:41:38;;;;;;;;;6.00;3.50;;;;;;;;5031712;28;46203;-86
2021/08/23 02:44:03;;;;;;;;;5.67;5.00;;;;;;;;5011219;28;45765;-86
2021/08/23 02:46:28;;;;;;;;;5.50;4.00;;;;;;;;5029507;28;45565;-87
2021/08/23 02:48:54;;;;;;;;;3.25;3.25;;;;;;;;5029467;28;45621;-86
2021/08/23 02:51:19;;;;;;;;;6.00;4.67;;;;;;;;5028005;28;45613;-86
2021/08/23 02:53:44;;;;;;;;;5.25;4.00;;;;;;;;5029144;28;45695;-86
2021/08/23 02:56:09;;;;;;;;;4.67;4.67;;;;;;;;5025631;28;45565;-87
2021/08/23 02:58:34;;;;;;;;;5.50;4.50;;;;;;;;5031234;28;45283;-86
2021/08/23 03:01:00;;;;;;;;;5.00;5.00;;;;;;;;5031604;28;45482;-86
2021/08/23 03:03:25;;;;;;;;;9.00;5.00;;;;;;;;5029629;28;45603;-87
2021/08/23 03:05:50;;;;;;;;;5.00;5.00;;;;;;;;5028994;28;45892;-87
2021/08/23 03:08:15;;;;;;;;;6.00;5.00;;;;;;;;5010025;28;45559;-86
2021/08/23 03:10:41;;;;;;;;;4.00;4.00;;;;;;;;5013272;28;48802;-86
2021/08/23 03:13:06;;;;;;;;;6.00;4.00;;;;;;;;5030191;28;45570;-86
2021/08/23 03:15:31;;;;;;;;;7.33;5.00;;;;;;;;5026914;28;45616;-86
2021/08/23 03:17:56;;;;;;;;;5.00;4.00;;;;;;;;5026943;28;45526;-86
2021/08/23 03:20:22;;;;;;;;;7.00;4.67;;;;;;;;5010112;28;48344;-86
2021/08/23 03:22:47;;;;;;;;;10.00;5.75;;;;;;;;5009234;28;45710;-87
2021/08/23 03:25:12;;;;;;;;;8.00;5.00;;;;;;;;5013522;28;45509;-87
2021/08/23 03:27:37;;;;;;;;;4.00;4.00;;;;;;;;5028786;28;45571;-86
2021/08/23 03:30:03;;;;;;;;;6.00;6.00;;;;;;;;5030791;28;46834;-86
2021/08/23 03:32:28;;;;;;;;;5.00;5.00;;;;;;;;5010003;28;46850;-86
2021/08/23 03:34:53;;;;;;;;;7.00;5.75;;;;;;;;5027494;28;45941;-86
2021/08/23 03:37:19;;;;;;;;;6.67;5.00;;;;;;;;5027105;28;45446;-86
2021/08/23 03:39:44;;;;;;;;;7.00;4.67;;;;;;;;5028516;28;45529;-86
2021/08/23 03:42:09;;;;;;;;;7.00;5.50;;;;;;;;5027846;28;45494;-87
2021/08/23 03:44:34;;;;;;;;;6.00;6.00;;;;;;;;5031660;28;45841;-86
2021/08/23 03:47:00;;;;;;;;;7.33;6.33;;;;;;;;5027477;28;45694;-86
2021/08/23 03:49:25;;;;;;;;;6.25;5.25;;;;;;;;5032182;28;46668;-87
2021/08/23 03:51:50;;;;;;;;;9.00;6.00;;;;;;;;5028101;28;45545;-85
2021/08/23 03:54:15;;;;;;;;;5.67;4.00;;;;;;;;5030191;28;45709;-86
2021/08/23 03:56:41;;;;;;;;;9.67;5.33;;;;;;;;5031033;28;45637;-87
2021/08/23 03:59:06;;;;;;;;;8.00;6.00;;;;;;;;5027817;28;45722;-87
2021/08/23 04:01:31;;;;;;;;;5.33;5.33;;;;;;;;5011747;28;46040;-87
2021/08/23 04:03:56;;;;;;;;;8.50;5.25;;;;;;;;5029054;28;45624;-86
2021/08/23 04:06:21;;;;;;;;;6.50;6.50;;;;;;;;5029868;28;45452;-87
2021/08/23 04:08:47;;;;;;;;;10.67;7.00;;;;;;;;5028992;28;46998;-87
2021/08/23 04:11:13;;;;;;;;;7.00;6.25;;;;;;;;5025973;28;45468;-87
2021/08/23 04:13:39;;;;;;;;;11.00;6.75;;;;;;;;5033262;28;45468;-87
2021/08/23 04:16:04;;;;;;;;;7.00;5.75;;;;;;;;5029119;28;45523;-88
2021/08/23 04:18:29;;;;;;;;;7.00;5.67;;;;;;;;5028193;28;45219;-87
2021/08/23 04:20:54;;;;;;;;;6.75;6.00;;;;;;;;5031754;28;45442;-87
2021/08/23 04:23:19;;;;;;;;;6.00;6.00;;;;;;;;5030367;28;45457;-87
2021/08/23 04:25:45;;;;;;;;;6.33;6.00;;;;;;;;5006438;28;45611;-86
2021/08/23 04:28:10;;;;;;;;;11.00;7.00;;;;;;;;5030584;28;45630;-86
2021/08/23 04:30:35;;;;;;;;;6.00;6.00;;;;;;;;5011477;28;45568;-86
2021/08/23 04:33:00;;;;;;;;;6.33;6.00;;;;;;;;5030424;28;45648;-87
2021/08/23 04:35:25;;;;;;;;;6.00;6.00;;;;;;;;5009342;28;45561;-88
2021/08/23 04:37:51;;;;;;;;;5.75;5.75;;;;;;;;5026754;28;45543;-88
2021/08/23 04:40:16;;;;;;;;;8.00;6.33;;;;;;;;5008621;28;46105;-88
2021/08/23 04:42:41;;;;;;;;;10.00;7.75;;;;;;;;5028847;28;45569;-89
2021/08/23 04:45:06;;;;;;;;;7.33;6.00;;;;;;;;5027693;28;45499;-88
2021/08/23 04:47:32;;;;;;;;;7.00;5.25;;;;;;;;5029127;28;47174;-89
2021/08/23 04:49:57;;;;;;;;;7.00;5.00;;;;;;;;5010285;28;45630;-87
2021/08/23 04:52:22;;;;;;;;;8.00;5.50;;;;;;;;5029571;28;45795;-88
2021/08/23 04:54:48;;;;;;;;;7.75;6.00;;;;;;;;5025183;28;45554;-88
2021/08/23 04:57:13;;;;;;;;;9.00;6.00;;;;;;;;5008639;28;47564;-88
2021/08/23 04:59:38;;;;;;;;;12.00;7.00;;;;;;;;5011858;28;45499;-88
2021/08/23 05:02:03;;;;;;;;;6.33;5.33;;;;;;;;5028224;28;45343;-88
2021/08/23 05:04:29;;;;;;;;;6.00;6.00;;;;;;;;5030322;28;45410;-88
2021/08/23 05:06:54;;;;;;;;;6.67;6.67;;;;;;;;5009625;28;48012;-88
2021/08/23 05:09:19;;;;;;;;;9.50;9.50;;;;;;;;5024442;28;45765;-88
2021/08/23 05:11:44;;;;;;;;;9.00;9.00;;;;;;;;5028914;28;45419;-87
2021/08/23 05:14:09;;;;;;;;;6.50;6.50;;;;;;;;5027450;28;50894;-87
2021/08/23 05:16:35;;;;;;;;;10.67;9.00;;;;;;;;5028757;28;46185;-88
2021/08/23 05:19:00;;;;;;;;;8.75;7.75;;;;;;;;5026314;28;45505;-87
2021/08/23 05:21:25;;;;;;;;;11.75;9.25;;;;;;;;5027860;28;45574;-87
2021/08/23 05:23:50;;;;;;;;;12.67;8.00;;;;;;;;5028762;28;45511;-87
2021/08/23 05:26:16;;;;;;;;;12.00;7.00;;;;;;;;5027428;28;45549;-87
2021/08/23 05:28:41;;;;;;;;;11.75;9.50;;;;;;;;5025407;28;45675;-87
2021/08/23 05:31:06;;;;;;;;;10.50;10.00;;;;;;;;5029194;28;45547;-87
2021/08/23 05:33:32;;;;;;;;;13.50;8.00;;;;;;;;5008859;28;45479;-87
2021/08/23 05:35:57;;;;;;;;;10.25;9.00;;;;;;;;5011824;28;53779;-87
2021/08/23 05:38:22;;;;;;;;;13.67;8.67;;;;;;;;5027409;28;45411;-87
2021/08/23 05:40:47;;;;;;;;;12.33;9.33;;;;;;;;5027132;28;45478;-87
2021/08/23 05:43:12;;;;;;;;;16.00;10.00;;;;;;;;5008957;28;45565;-87
2021/08/23 05:45:37;;;;;;;;;12.00;8.00;;;;;;;;5028557;28;45378;-87
2021/08/23 05:48:03;;;;;;;;;10.00;10.00;;;;;;;;5034423;28;46698;-87
2021/08/23 05:50:28;;;;;;;;;9.25;8.50;;;;;;;;5033052;28;45677;-87
2021/08/23 05:52:53;;;;;;;;;10.75;9.50;;;;;;;;5032348;28;45462;-87
2021/08/23 05:55:19;;;;;;;;;8.50;8.00;;;;;;;;5036863;28;47368;-87
2021/08/23 05:57:44;;;;;;;;;12.25;10.25;;;;;;;;5014951;28;45398;-86
2021/08/23 06:00:10;;;;;;;;;15.25;11.25;;;;;;;;5034426;28;45395;-86
2021/08/23 06:02:35;;;;;;;;;13.50;12.00;;;;;;;;5034472;28;45529;-86
2021/08/23 06:05:00;;;;;;;;;18.67;14.00;;;;;;;;5013203;28;47016;-86
2021/08/23 06:07:26;;;;;;;;;15.00;12.33;;;;;;;;5014049;28;45523;-86
2021/08/23 06:09:51;;;;;;;;;12.00;10.00;;;;;;;;5031095;28;45566;-86
2021/08/23 06:12:16;;;;;;;;;15.67;13.33;;;;;;;;5033819;28;45603;-86
2021/08/23 06:14:41;;;;;;;;;13.00;11.00;;;;;;;;5035467;28;46534;-86
2021/08/23 06:17:07;;;;;;;;;12.00;12.00;;;;;;;;5031327;28;45410;-86
2021/08/23 06:19:32;;;;;;;;;13.75;11.75;;;;;;;;5035062;28;48195;-86
2021/08/23 06:21:58;;;;;;;;;16.25;13.75;;;;;;;;5032218;28;45468;-86
2021/08/23 06:24:23;;;;;;;;;15.00;12.00;;;;;;;;5035651;28;47267;-87
2021/08/23 06:26:48;;;;;;;;;17.25;12.50;;;;;;;;5035289;28;45530;-87
2021/08/23 06:29:13;;;;;;;;;15.33;12.67;;;;;;;;5019494;28;45415;-86
2021/08/23 06:31:39;;;;;;;;;15.00;14.00;;;;;;;;5038545;28;45498;-86
2021/08/23 06:34:05;;;;;;;;;20.00;14.50;;;;;;;;5038539;28;48576;-86
2021/08/23 06:36:32;;;;;;;;;21.25;15.00;;;;;;;;5036951;28;45714;-86
2021/08/23 06:38:57;;;;;;;;;18.25;15.75;;;;;;;;5039117;28;45703;-86
2021/08/23 06:41:22;;;;;;;;;19.67;15.67;;;;;;;;5037769;28;45471;-86
2021/08/23 06:43:48;;;;;;;;;19.00;15.67;;;;;;;;5019266;28;46920;-86
2021/08/23 06:46:13;;;;;;;;;21.25;16.00;;;;;;;;5038820;28;45438;-86
2021/08/23 06:48:39;;;;;;;;;17.50;15.50;;;;;;;;5036804;28;51253;-86
2021/08/23 06:51:04;;;;;;;;;16.00;15.00;;;;;;;;5040205;28;45633;-86
2021/08/23 06:53:29;;;;;;;;;22.75;15.25;;;;;;;;5037217;28;46019;-86
2021/08/23 06:55:54;;;;;;;;;15.33;13.67;;;;;;;;5037701;28;45485;-87
2021/08/23 06:58:20;;;;;;;;;13.50;13.50;;;;;;;;5016753;28;45425;-86
2021/08/23 07:00:45;;;;;;;;;17.33;15.00;;;;;;;;5014828;28;45463;-87
2021/08/23 07:03:10;;;;;;;;;13.67;12.00;;;;;;;;5044960;28;46607;-87
2021/08/23 07:05:35;;;;;;;;;16.00;11.67;;;;;;;;5033047;28;45511;-87
2021/08/23 07:08:00;;;;;;;;;13.33;12.67;;;;;;;;5033351;28;45731;-86
2021/08/23 07:10:26;;;;;;;;;15.00;12.33;;;;;;;;5033619;28;45633;-86
2021/08/23 07:12:51;;;;;;;;;14.00;11.00;;;;;;;;5030334;28;45450;-86
2021/08/23 07:15:16;;;;;;;;;14.33;10.00;;;;;;;;5013803;28;45644;-86
2021/08/23 07:17:41;;;;;;;;;14.50;11.00;;;;;;;;5030727;28;45541;-86
2021/08/23 07:20:07;;;;;;;;;12.33;10.00;;;;;;;;5030767;28;45796;-86
2021/08/23 07:22:32;;;;;;;;;10.50;10.25;;;;;;;;5034372;28;45671;-86
2021/08/23 07:24:57;;;;;;;;;20.00;11.00;;;;;;;;5031950;28;45368;-86
2021/08/23 07:27:22;;;;;;;;;14.00;13.00;;;;;;;;5029151;28;45478;-86
2021/08/23 07:29:47;;;;;;;;;16.50;11.25;;;;;;;;5029571;28;45412;-86
2021/08/23 07:32:13;;;;;;;;;16.75;13.50;;;;;;;;5030982;28;46576;-86
2021/08/23 07:34:38;;;;;;;;;12.33;11.00;;;;;;;;5031189;28;45673;-86
2021/08/23 07:37:03;;;;;;;;;16.67;13.33;;;;;;;;5032046;28;45388;-87
2021/08/23 07:39:29;;;;;;;;;17.00;12.50;;;;;;;;5030280;28;46278;-87
2021/08/23 07:41:54;;;;;;;;;10.50;9.00;;;;;;;;5033804;28;46469;-86
2021/08/23 07:44:19;;;;;;;;;12.00;9.67;;;;;;;;5029685;28;45519;-86
2021/08/23 07:46:44;;;;;;;;;11.00;10.00;;;;;;;;5030947;28;45573;-87
2021/08/23 07:49:10;;;;;;;;;10.00;10.00;;;;;;;;5032838;28;45718;-86
2021/08/23 07:51:35;;;;;;;;;8.50;8.50;;;;;;;;5030465;28;45636;-86
2021/08/23 07:54:00;;;;;;;;;12.50;10.25;;;;;;;;5014974;28;45946;-86
2021/08/23 07:56:26;;;;;;;;;13.00;10.50;;;;;;;;5031463;28;48142;-86
2021/08/23 07:58:51;;;;;;;;;10.00;8.50;;;;;;;;5030170;28;46099;-86
2021/08/23 08:01:16;;;;;;;;;15.25;11.00;;;;;;;;5032228;28;51075;-86
2021/08/23 08:03:42;;;;;;;;;16.00;10.67;;;;;;;;5013985;28;45533;-87
2021/08/23 08:06:07;;;;;;;;;15.75;10.00;;;;;;;;5016188;28;45740;-87
2021/08/23 08:08:32;;;;;;;;;10.00;8.00;;;;;;;;5025648;28;45605;-87
2021/08/23 08:10:58;;;;;;;;;13.67;9.67;;;;;;;;5036404;28;46018;-86
2021/08/23 08:13:23;;;;;;;;;11.75;10.75;;;;;;;;5033097;28;45673;-86
2021/08/23 08:15:49;;;;;;;;;15.75;12.00;;;;;;;;5031453;28;51037;-86
2021/08/23 08:18:14;;;;;;;;;10.75;10.75;;;;;;;;5030915;28;45356;-87
2021/08/23 08:20:39;;;;;;;;;16.00;12.00;;;;;;;;5031419;28;46567;-86
2021/08/23 08:23:04;;;;;;;;;12.75;11.00;;;;;;;;5030690;28;45269;-87
2021/08/23 08:25:30;;;;;;;;;11.67;10.67;;;;;;;;5032921;28;45431;-87
2021/08/23 08:27:55;;;;;;;;;13.00;10.00;;;;;;;;5033070;28;45474;-87
2021/08/23 08:30:20;;;;;;;;;14.75;10.75;;;;;;;;5012996;28;48182;-87
2021/08/23 08:32:46;;;;;;;;;12.33;11.00;;;;;;;;5029661;28;45707;-87
2021/08/23 08:35:11;;;;;;;;;13.50;12.50;;;;;;;;5008106;28;50495;-87
2021/08/23 08:37:37;;;;;;;;;10.75;10.00;;;;;;;;5032250;28;45699;-87
2021/08/23 08:40:02;;;;;;;;;12.00;10.50;;;;;;;;5030232;28;46165;-87
2021/08/23 08:42:28;;;;;;;;;15.25;12.50;;;;;;;;5031456;28;45558;-86
2021/08/23 08:44:53;;;;;;;;;12.00;11.00;;;;;;;;5032567;28;45640;-87
2021/08/23 08:47:19;;;;;;;;;15.33;12.00;;;;;;;;5031251;28;45665;-87
2021/08/23 08:49:45;;;;;;;;;12.50;9.00;;;;;;;;5012938;28;48293;-87
2021/08/23 08:52:11;;;;;;;;;10.25;9.75;;;;;;;;5031871;28;45635;-87
2021/08/23 08:54:37;;;;;;;;;11.25;10.25;;;;;;;;5029939;28;46214;-87
2021/08/23 08:57:03;;;;;;;;;11.00;10.00;;;;;;;;5031961;28;45588;-87
2021/08/23 08:59:29;;;;;;;;;12.50;9.00;;;;;;;;5030144;28;45633;-86
2021/08/23 09:01:54;;;;;;;;;9.75;9.75;;;;;;;;5016570;28;45543;-87
2021/08/23 09:04:30;;;;;;;;;11.00;8.67;;;;;;;;5011867;28;45919;-87
2021/08/23 09:06:57;;;;;;;;;11.00;8.25;;;;;;;;5029705;28;45698;-87
2021/08/23 09:09:23;;;;;;;;;11.25;9.25;;;;;;;;5011292;28;48029;-87
2021/08/23 09:11:59;;;;;;;;;10.25;9.25;;;;;;;;5031376;28;45401;-87
2021/08/23 09:14:24;;;;;;;;;11.25;10.00;;;;;;;;5028868;28;45389;-87
2021/08/23 09:16:50;;;;;;;;;9.25;7.25;;;;;;;;5025566;28;45614;-87
2021/08/23 09:19:22;;;;;;;;;13.50;8.50;;;;;;;;5014369;28;47093;-87
2021/08/23 09:21:47;;;;;;;;;9.75;8.50;;;;;;;;5029741;28;46090;-87
2021/08/23 09:24:19;;;;;;;;;13.00;10.00;;;;;;;;5031549;28;45411;-88
2021/08/23 09:26:44;;;;;;;;;9.50;9.25;;;;;;;;5032090;28;45481;-86
2021/08/23 09:29:09;;;;;;;;;8.75;7.75;;;;;;;;5028603;28;45574;-88
2021/08/23 09:31:36;;;;;;;;;9.67;9.67;;;;;;;;5030758;28;45590;-87
2021/08/23 09:34:02;;;;;;;;;12.75;10.50;;;;;;;;5029377;28;45532;-87
2021/08/23 09:36:27;;;;;;;;;8.00;7.75;;;;;;;;5028479;28;45544;-88
2021/08/23 09:39:00;;;;;;;;;6.75;6.00;;;;;;;;5024170;28;47092;-87
2021/08/23 09:41:25;;;;;;;;;7.00;7.00;;;;;;;;5010921;28;46214;-87
2021/08/23 09:44:01;;;;;;;;;9.50;7.75;;;;;;;;5030664;28;45419;-87
2021/08/23 09:46:26;;;;;;;;;13.50;9.25;;;;;;;;5031428;28;45454;-87
2021/08/23 09:48:53;;;;;;;;;7.75;7.75;;;;;;;;5030858;28;46146;-87
2021/08/23 09:51:29;;;;;;;;;9.25;7.75;;;;;;;;5030384;28;45769;-88
2021/08/23 09:54:04;;;;;;;;;8.75;8.75;;;;;;;;5032336;28;46290;-87
2021/08/23 09:56:31;;;;;;;;;9.50;8.00;;;;;;;;5010932;28;45519;-87
2021/08/23 09:58:56;;;;;;;;;6.75;6.75;;;;;;;;5028290;28;47274;-88
2021/08/23 10:01:21;;;;;;;;;7.00;6.67;;;;;;;;5014190;28;45736;-87
2021/08/23 10:03:46;;;;;;;;;11.00;9.00;;;;;;;;5028973;28;45647;-87
2021/08/23 10:06:12;;;;;;;;;7.67;7.67;;;;;;;;5031748;28;45382;-87
2021/08/23 10:08:37;;;;;;;;;7.67;6.67;;;;;;;;5029911;28;45482;-87
2021/08/23 10:11:03;;;;;;;;;6.25;5.00;;;;;;;;5030246;28;45525;-88
2021/08/23 10:13:29;;;;;;;;;7.00;7.00;;;;;;;;5029747;28;45697;-87
2021/08/23 10:15:54;;;;;;;;;7.50;6.50;;;;;;;;5031428;28;45256;-87
2021/08/23 10:18:19;;;;;;;;;8.50;6.50;;;;;;;;5015175;28;47307;-87
2021/08/23 10:20:44;;;;;;;;;7.75;6.75;;;;;;;;5031063;28;45348;-86
2021/08/23 10:23:14;;;;;;;;;8.00;7.75;;;;;;;;5032155;28;45522;-87
2021/08/23 10:25:39;;;;;;;;;7.75;5.25;;;;;;;;5032442;28;45425;-86
2021/08/23 10:28:06;;;;;;;;;9.25;7.25;;;;;;;;5035421;28;45582;-87
2021/08/23 10:30:32;;;;;;;;;8.75;7.50;;;;;;;;5029383;28;45312;-86
2021/08/23 10:33:07;;;;;;;;;6.50;6.25;;;;;;;;5025841;28;45609;-87
2021/08/23 10:35:33;;;;;;;;;7.75;7.75;;;;;;;;5031855;28;45567;-86
2021/08/23 10:37:58;;;;;;;;;9.25;8.00;;;;;;;;5029649;28;45518;-86
2021/08/23 10:40:24;;;;;;;;;8.50;6.75;;;;;;;;5011065;28;45462;-86
2021/08/23 10:42:50;;;;;;;;;8.25;7.50;;;;;;;;5028804;28;45281;-87
2021/08/23 10:45:17;;;;;;;;;7.00;5.50;;;;;;;;5035877;28;45694;-86
2021/08/23 10:47:43;;;;;;;;;7.75;6.00;;;;;;;;5033647;28;46589;-87
2021/08/23 10:50:29;;;;;;;;;7.25;6.25;;;;;;;;5032206;28;45759;-86
2021/08/23 10:52:55;;;;;;;;;6.00;5.75;;;;;;;;5030031;28;45472;-86
2021/08/23 10:55:23;;;;;;;;;8.75;6.25;;;;;;;;5028800;28;50000;-87
2021/08/23 10:57:48;;;;;;;;;7.25;7.00;;;;;;;;5029741;28;46669;-86
2021/08/23 11:00:15;;;;;;;;;6.50;6.50;;;;;;;;5014027;28;45615;-87
2021/08/23 11:02:40;;;;;;;;;7.00;6.75;;;;;;;;5032004;28;45845;-87
2021/08/23 11:05:13;;;;;;;;;8.50;7.75;;;;;;;;5014623;28;45807;-86
2021/08/23 11:07:41;;;;;;;;;6.50;6.25;;;;;;;;5032224;28;47666;-86
2021/08/23 11:10:09;;;;;;;;;8.25;8.00;;;;;;;;5023862;28;45541;-86
2021/08/23 11:12:48;;;;;;;;;7.25;6.00;;;;;;;;5031820;28;45486;-86
2021/08/23 11:15:32;;;;;;;;;7.25;5.25;;;;;;;;5027586;28;45336;-86
2021/08/23 11:17:59;;;;;;;;;7.75;7.75;;;;;;;;5033101;28;46653;-87
2021/08/23 11:20:29;;;;;;;;;7.75;7.75;;;;;;;;5033656;28;45250;-86
2021/08/23 11:22:58;;;;;;;;;7.75;6.50;;;;;;;;5024018;28;45505;-86
2021/08/23 11:25:37;;;;;;;;;8.00;8.00;;;;;;;;5029344;28;45469;-87
2021/08/23 11:28:07;;;;;;;;;8.50;6.75;;;;;;;;5031724;28;45602;-86
2021/08/23 11:30:37;;;;;;;;;7.00;7.00;;;;;;;;5031257;28;45762;-86
2021/08/23 11:33:03;;;;;;;;;9.00;7.75;;;;;;;;5024495;28;45576;-86
2021/08/23 11:35:28;;;;;;;;;7.00;7.00;;;;;;;;5032553;28;45535;-86
2021/08/23 11:37:55;;;;;;;;;9.50;8.75;;;;;;;;5026540;28;45835;-86
2021/08/23 11:40:20;;;;;;;;;8.00;5.25;;;;;;;;5026029;28;45482;-86
2021/08/23 11:42:45;;;;;;;;;9.00;9.00;;;;;;;;5025520;28;45438;-87
2021/08/23 11:45:10;;;;;;;;;8.33;6.33;;;;;;;;5033758;28;45470;-86
2021/08/23 11:47:36;;;;;;;;;11.67;9.67;;;;;;;;5030093;28;45852;-86
2021/08/23 11:50:02;;;;;;;;;8.25;7.75;;;;;;;;5007630;28;45727;-86
2021/08/23 11:52:27;;;;;;;;;11.50;7.75;;;;;;;;5016709;28;47025;-87
2021/08/23 11:54:53;;;;;;;;;12.75;8.50;;;;;;;;5028457;28;45219;-86
2021/08/23 11:57:19;;;;;;;;;7.75;7.75;;;;;;;;5032607;28;46343;-86
2021/08/23 11:59:58;;;;;;;;;7.00;7.00;;;;;;;;5034034;28;45546;-86
2021/08/23 12:02:26;;;;;;;;;10.25;9.50;;;;;;;;5031256;28;45593;-87
2021/08/23 12:04:51;;;;;;;;;9.75;7.75;;;;;;;;5032264;28;47663;-86
2021/08/23 12:07:16;;;;;;;;;10.00;7.33;;;;;;;;5029818;28;46069;-86
2021/08/23 12:09:41;;;;;;;;;9.67;7.33;;;;;;;;5029682;28;45459;-87
2021/08/23 12:12:07;;;;;;;;;9.33;7.00;;;;;;;;5025030;28;45408;-86
2021/08/23 12:14:32;;;;;;;;;8.25;8.25;;;;;;;;5031057;28;45356;-86
2021/08/23 12:17:05;;;;;;;;;8.67;6.00;;;;;;;;5032788;28;48918;-87
2021/08/23 12:19:30;;;;;;;;;7.75;6.25;;;;;;;;5014050;28;45668;-86
2021/08/23 12:22:03;;;;;;;;;8.33;7.00;;;;;;;;5020719;28;45709;-86
2021/08/23 12:24:28;;;;;;;;;10.50;7.25;;;;;;;;5030747;28;45629;-87
2021/08/23 12:26:54;;;;;;;;;12.25;8.75;;;;;;;;5033571;28;47962;-86
2021/08/23 12:29:22;;;;;;;;;7.25;7.25;;;;;;;;5033306;28;45440;-87
2021/08/23 12:31:51;;;;;;;;;9.25;7.00;;;;;;;;5023321;28;45647;-86
2021/08/23 12:34:18;;;;;;;;;6.75;6.75;;;;;;;;5034600;28;46320;-86
2021/08/23 12:36:44;;;;;;;;;8.00;7.00;;;;;;;;5014856;28;46764;-87
2021/08/23 12:39:09;;;;;;;;;10.00;8.00;;;;;;;;5026816;28;45416;-87
2021/08/23 12:41:37;;;;;;;;;11.00;10.50;;;;;;;;5030833;28;45487;-87
2021/08/23 12:44:03;;;;;;;;;15.25;11.00;;;;;;;;5015113;28;45538;-86
2021/08/23 12:46:29;;;;;;;;;12.25;10.75;;;;;;;;5031443;28;45471;-87
2021/08/23 12:48:54;;;;;;;;;11.75;9.00;;;;;;;;5027424;28;45395;-86
2021/08/23 12:51:19;;;;;;;;;13.67;10.00;;;;;;;;5011791;28;45712;-87
2021/08/23 12:53:45;;;;;;;;;15.50;11.50;;;;;;;;5028840;28;45601;-87
2021/08/23 12:56:11;;;;;;;;;13.75;13.25;;;;;;;;5028896;28;46453;-86
2021/08/23 12:58:36;;;;;;;;;16.75;13.75;;;;;;;;5010752;28;45615;-87
2021/08/23 13:01:01;;;;;;;;;16.67;12.33;;;;;;;;5023927;28;45480;-88
2021/08/23 13:03:26;;;;;;;;;13.50;11.00;;;;;;;;5042210;28;45464;-86
2021/08/23 13:05:52;;;;;;;;;11.33;10.67;;;;;;;;5033153;28;48329;-87
2021/08/23 13:08:22;;;;;;;;;10.33;9.00;;;;;;;;5036989;28;45487;-86
2021/08/23 13:10:47;;;;;;;;;17.25;13.50;;;;;;;;5051057;28;45293;-87
2021/08/23 13:13:18;;;;;;;;;14.67;14.67;;;;;;;;5041372;28;45316;-87
2021/08/23 13:15:44;;;;;;;;;19.00;15.00;;;;;;;;5046246;28;46259;-87
2021/08/23 13:18:14;;;;;;;;;12.75;11.25;;;;;;;;5036121;28;45448;-88
2021/08/23 13:20:40;;;;;;;;;19.00;17.00;;;;;;;;5028472;28;44872;-88
2021/08/23 13:23:13;;;;;;;;;19.50;15.25;;;;;;;;5028325;28;44779;-88
2021/08/23 13:25:59;;;;;;;;;23.75;16.50;;;;;;;;5033847;28;45636;-88
2021/08/23 13:28:24;;;;;;;;;18.50;17.50;;;;;;;;5026721;28;45274;-88
2021/08/23 13:31:10;;;;;;;;;17.50;14.25;;;;;;;;5021220;28;44783;-88
2021/08/23 13:33:35;;;;;;;;;16.00;14.25;;;;;;;;5032912;28;45343;-88
2021/08/23 13:36:01;;;;;;;;;13.00;13.00;;;;;;;;5019677;28;45559;-88
2021/08/23 13:38:31;;;;;;;;;13.75;13.00;;;;;;;;5031027;28;44709;-87
2021/08/23 13:41:02;;;;;;;;;14.75;13.25;;;;;;;;5029275;28;45384;-87
2021/08/23 13:43:32;;;;;;;;;16.75;13.50;;;;;;;;5035340;28;44825;-87
2021/08/23 13:45:57;;;;;;;;;12.00;12.00;;;;;;;;5033237;28;45487;-87
2021/08/23 13:48:28;;;;;;;;;12.00;11.33;;;;;;;;5033961;28;45574;-87
2021/08/23 13:50:54;;;;;;;;;16.75;12.00;;;;;;;;5011031;28;44843;-87
2021/08/23 13:53:23;;;;;;;;;15.25;13.50;;;;;;;;5036151;28;45510;-87
2021/08/23 13:58:18;;;;;;;;;12.25;11.75;;;;;;;;5046112;28;45596;-79
2021/08/23 14:00:43;;;;;;;;;12.00;10.00;;;;;;;;5043283;28;45535;-81
2021/08/23 14:03:08;;;;;;;;;12.50;11.50;;;;;;;;5045956;28;45502;-80
2021/08/23 14:05:33;;;;;;;;;10.00;10.00;;;;;;;;5040103;28;46828;-81
2021/08/23 14:07:59;;;;;;;;;14.50;12.50;;;;;;;;5048046;28;46219;-80
2021/08/23 14:10:24;;;;;;;;;13.00;11.75;;;;;;;;5046402;28;45603;-81
2021/08/23 14:12:50;;;;;;;;;15.25;11.00;;;;;;;;5056876;28;45590;-80
2021/08/23 14:15:18;;;;;;;;;13.50;12.00;;;;;;;;5059161;28;45533;-81
2021/08/23 14:17:43;;;;;;;;;13.50;13.50;;;;;;;;5058294;28;45365;-80
2021/08/23 14:20:09;;;;;;;;;13.67;13.00;;;;;;;;5056821;28;46614;-80
2021/08/23 14:22:49;;;;;;;;;18.50;14.75;;;;;;;;5050450;28;45376;-80
2021/08/23 14:25:15;;;;;;;;;16.00;12.50;;;;;;;;5029977;28;45798;-80
2021/08/23 14:27:41;;;;;;;;;19.00;17.00;;;;;;;;5042999;28;45611;-80
2021/08/23 14:30:07;;;;;;;;;17.00;14.00;;;;;;;;5048180;28;45596;-79
2021/08/23 14:32:32;;;;;;;;;18.00;15.25;;;;;;;;5043707;28;45562;-79